sensor_id;sensor_type;location;lat;lon;timestamp;P1;durP1;ratioP1;P2;durP2;ratioP2
45540;SDS011;31265;49.680;8.608;2023-06-10T00:01:03;4.05;;;2.25;;
45540;SDS011;31265;49.680;8.608;2023-06-10T00:03:31;3.13;;;1.98;;
45540;SDS011;31265;49.680;8.608;2023-06-10T00:06:04;3.53;;;2.20;;
45540;SDS011;31265;49.680;8.608;2023-06-10T00:08:34;5.55;;;2.40;;
45540;SDS011;31265;49.680;8.608;2023-06-10T00:11:04;4.85;;;2.55;;
45540;SDS011;31265;49.680;8.608;2023-06-10T00:13:33;5.55;;;2.72;;
45540;SDS011;31265;49.680;8.608;2023-06-10T00:16:01;6.00;;;2.85;;
45540;SDS011;31265;49.680;8.608;2023-06-10T00:18:32;3.92;;;2.40;;
45540;SDS011;31265;49.680;8.608;2023-06-10T00:21:04;4.40;;;2.50;;
45540;SDS011;31265;49.680;8.608;2023-06-10T00:23:32;5.82;;;2.67;;
45540;SDS011;31265;49.680;8.608;2023-06-10T00:26:06;4.38;;;2.17;;
45540;SDS011;31265;49.680;8.608;2023-06-10T00:28:35;5.30;;;2.58;;
45540;SDS011;31265;49.680;8.608;2023-06-10T00:31:03;6.82;;;2.85;;
45540;SDS011;31265;49.680;8.608;2023-06-10T00:33:32;4.32;;;2.58;;
45540;SDS011;31265;49.680;8.608;2023-06-10T00:38:30;4.65;;;2.53;;
45540;SDS011;31265;49.680;8.608;2023-06-10T00:40:58;5.20;;;2.80;;
45540;SDS011;31265;49.680;8.608;2023-06-10T00:43:31;4.38;;;2.47;;
45540;SDS011;31265;49.680;8.608;2023-06-10T00:45:59;4.55;;;2.72;;
45540;SDS011;31265;49.680;8.608;2023-06-10T00:48:29;4.35;;;2.42;;
45540;SDS011;31265;49.680;8.608;2023-06-10T00:50:59;4.22;;;2.58;;
45540;SDS011;31265;49.680;8.608;2023-06-10T00:53:28;3.67;;;2.35;;
45540;SDS011;31265;49.680;8.608;2023-06-10T00:55:57;5.18;;;2.90;;
45540;SDS011;31265;49.680;8.608;2023-06-10T00:58:29;4.68;;;2.25;;
45540;SDS011;31265;49.680;8.608;2023-06-10T01:00:59;4.65;;;2.88;;
45540;SDS011;31265;49.680;8.608;2023-06-10T01:05:57;6.45;;;3.15;;
45540;SDS011;31265;49.680;8.608;2023-06-10T01:08:35;6.85;;;3.05;;
45540;SDS011;31265;49.680;8.608;2023-06-10T01:11:17;5.15;;;2.47;;
45540;SDS011;31265;49.680;8.608;2023-06-10T01:16:21;6.10;;;2.33;;
45540;SDS011;31265;49.680;8.608;2023-06-10T01:18:52;6.13;;;3.25;;
45540;SDS011;31265;49.680;8.608;2023-06-10T01:21:23;4.68;;;2.50;;
45540;SDS011;31265;49.680;8.608;2023-06-10T01:23:53;4.60;;;2.92;;
45540;SDS011;31265;49.680;8.608;2023-06-10T01:26:24;5.28;;;2.88;;
45540;SDS011;31265;49.680;8.608;2023-06-10T01:28:57;4.82;;;2.70;;
45540;SDS011;31265;49.680;8.608;2023-06-10T01:31:33;3.90;;;2.55;;
45540;SDS011;31265;49.680;8.608;2023-06-10T01:34:08;5.32;;;2.80;;
45540;SDS011;31265;49.680;8.608;2023-06-10T01:36:42;4.20;;;2.15;;
45540;SDS011;31265;49.680;8.608;2023-06-10T01:39:15;6.47;;;3.10;;
45540;SDS011;31265;49.680;8.608;2023-06-10T01:41:45;6.53;;;2.70;;
45540;SDS011;31265;49.680;8.608;2023-06-10T01:44:17;4.28;;;2.75;;
45540;SDS011;31265;49.680;8.608;2023-06-10T01:46:46;5.03;;;2.78;;
45540;SDS011;31265;49.680;8.608;2023-06-10T01:49:15;5.68;;;2.95;;
45540;SDS011;31265;49.680;8.608;2023-06-10T01:51:45;5.85;;;3.28;;
45540;SDS011;31265;49.680;8.608;2023-06-10T01:56:41;4.47;;;2.58;;
45540;SDS011;31265;49.680;8.608;2023-06-10T01:59:11;6.38;;;3.35;;
45540;SDS011;31265;49.680;8.608;2023-06-10T02:01:39;7.43;;;2.97;;
45540;SDS011;31265;49.680;8.608;2023-06-10T02:04:09;6.03;;;2.97;;
45540;SDS011;31265;49.680;8.608;2023-06-10T02:06:38;4.18;;;3.00;;
45540;SDS011;31265;49.680;8.608;2023-06-10T02:09:10;10.02;;;2.55;;
45540;SDS011;31265;49.680;8.608;2023-06-10T02:11:39;4.65;;;2.80;;
45540;SDS011;31265;49.680;8.608;2023-06-10T02:14:13;4.95;;;2.85;;
45540;SDS011;31265;49.680;8.608;2023-06-10T02:16:50;4.82;;;2.58;;
45540;SDS011;31265;49.680;8.608;2023-06-10T02:19:23;4.60;;;2.70;;
45540;SDS011;31265;49.680;8.608;2023-06-10T02:21:54;5.88;;;3.35;;
45540;SDS011;31265;49.680;8.608;2023-06-10T02:24:24;5.72;;;2.97;;
45540;SDS011;31265;49.680;8.608;2023-06-10T02:26:52;5.40;;;3.33;;
45540;SDS011;31265;49.680;8.608;2023-06-10T02:31:53;4.65;;;2.95;;
45540;SDS011;31265;49.680;8.608;2023-06-10T02:34:21;5.55;;;3.67;;
45540;SDS011;31265;49.680;8.608;2023-06-10T02:36:49;5.05;;;2.60;;
45540;SDS011;31265;49.680;8.608;2023-06-10T02:39:21;7.30;;;2.92;;
45540;SDS011;31265;49.680;8.608;2023-06-10T02:41:54;5.07;;;2.63;;
45540;SDS011;31265;49.680;8.608;2023-06-10T02:44:25;4.82;;;2.80;;
45540;SDS011;31265;49.680;8.608;2023-06-10T02:46:54;6.55;;;3.42;;
45540;SDS011;31265;49.680;8.608;2023-06-10T02:49:22;6.60;;;3.20;;
45540;SDS011;31265;49.680;8.608;2023-06-10T02:51:51;4.93;;;3.35;;
45540;SDS011;31265;49.680;8.608;2023-06-10T02:54:21;6.18;;;3.40;;
45540;SDS011;31265;49.680;8.608;2023-06-10T02:56:50;6.38;;;3.15;;
45540;SDS011;31265;49.680;8.608;2023-06-10T02:59:26;4.65;;;3.08;;
45540;SDS011;31265;49.680;8.608;2023-06-10T03:01:55;4.72;;;2.58;;
45540;SDS011;31265;49.680;8.608;2023-06-10T03:04:25;5.53;;;3.25;;
45540;SDS011;31265;49.680;8.608;2023-06-10T03:07:02;4.95;;;2.92;;
45540;SDS011;31265;49.680;8.608;2023-06-10T03:09:34;6.03;;;3.20;;
45540;SDS011;31265;49.680;8.608;2023-06-10T03:14:41;6.68;;;3.13;;
45540;SDS011;31265;49.680;8.608;2023-06-10T03:17:10;4.22;;;2.85;;
45540;SDS011;31265;49.680;8.608;2023-06-10T03:19:41;8.02;;;3.53;;
45540;SDS011;31265;49.680;8.608;2023-06-10T03:22:11;7.68;;;3.28;;
45540;SDS011;31265;49.680;8.608;2023-06-10T03:24:48;9.18;;;3.50;;
45540;SDS011;31265;49.680;8.608;2023-06-10T03:27:18;5.35;;;3.17;;
45540;SDS011;31265;49.680;8.608;2023-06-10T03:29:52;4.93;;;3.13;;
45540;SDS011;31265;49.680;8.608;2023-06-10T03:32:21;7.00;;;3.33;;
45540;SDS011;31265;49.680;8.608;2023-06-10T03:34:50;5.78;;;3.58;;
45540;SDS011;31265;49.680;8.608;2023-06-10T03:37:26;5.38;;;3.28;;
45540;SDS011;31265;49.680;8.608;2023-06-10T03:39:55;6.72;;;3.42;;
45540;SDS011;31265;49.680;8.608;2023-06-10T03:42:26;5.10;;;3.30;;
45540;SDS011;31265;49.680;8.608;2023-06-10T03:44:56;5.38;;;3.17;;
45540;SDS011;31265;49.680;8.608;2023-06-10T03:47:32;5.57;;;3.53;;
45540;SDS011;31265;49.680;8.608;2023-06-10T03:50:03;7.35;;;3.50;;
45540;SDS011;31265;49.680;8.608;2023-06-10T03:52:33;6.13;;;3.35;;
45540;SDS011;31265;49.680;8.608;2023-06-10T03:55:01;5.88;;;3.10;;
45540;SDS011;31265;49.680;8.608;2023-06-10T03:57:30;5.88;;;3.67;;
45540;SDS011;31265;49.680;8.608;2023-06-10T04:00:01;7.30;;;3.35;;
45540;SDS011;31265;49.680;8.608;2023-06-10T04:02:40;9.55;;;4.35;;
45540;SDS011;31265;49.680;8.608;2023-06-10T04:05:19;6.32;;;3.97;;
45540;SDS011;31265;49.680;8.608;2023-06-10T04:07:49;5.68;;;3.45;;
45540;SDS011;31265;49.680;8.608;2023-06-10T04:10:18;5.07;;;3.03;;
45540;SDS011;31265;49.680;8.608;2023-06-10T04:12:46;6.77;;;3.70;;
45540;SDS011;31265;49.680;8.608;2023-06-10T04:15:16;6.43;;;3.40;;
45540;SDS011;31265;49.680;8.608;2023-06-10T04:17:46;5.05;;;3.78;;
45540;SDS011;31265;49.680;8.608;2023-06-10T04:20:18;5.88;;;3.42;;
45540;SDS011;31265;49.680;8.608;2023-06-10T04:22:48;6.30;;;3.67;;
45540;SDS011;31265;49.680;8.608;2023-06-10T04:25:16;6.20;;;3.78;;
45540;SDS011;31265;49.680;8.608;2023-06-10T04:27:45;5.30;;;3.28;;
45540;SDS011;31265;49.680;8.608;2023-06-10T04:30:14;6.38;;;3.75;;
45540;SDS011;31265;49.680;8.608;2023-06-10T04:32:44;6.15;;;3.72;;
45540;SDS011;31265;49.680;8.608;2023-06-10T04:35:15;6.20;;;3.17;;
45540;SDS011;31265;49.680;8.608;2023-06-10T04:37:46;6.18;;;3.67;;
45540;SDS011;31265;49.680;8.608;2023-06-10T04:40:15;6.40;;;3.75;;
45540;SDS011;31265;49.680;8.608;2023-06-10T04:42:45;6.30;;;4.13;;
45540;SDS011;31265;49.680;8.608;2023-06-10T04:45:14;6.30;;;3.78;;
45540;SDS011;31265;49.680;8.608;2023-06-10T04:47:42;8.13;;;3.50;;
45540;SDS011;31265;49.680;8.608;2023-06-10T04:50:12;6.28;;;3.75;;
45540;SDS011;31265;49.680;8.608;2023-06-10T04:52:41;6.80;;;3.50;;
45540;SDS011;31265;49.680;8.608;2023-06-10T04:55:10;5.95;;;3.63;;
45540;SDS011;31265;49.680;8.608;2023-06-10T04:57:38;6.78;;;3.38;;
45540;SDS011;31265;49.680;8.608;2023-06-10T05:00:07;9.27;;;4.07;;
45540;SDS011;31265;49.680;8.608;2023-06-10T05:05:07;6.32;;;3.20;;
45540;SDS011;31265;49.680;8.608;2023-06-10T05:07:36;6.65;;;3.10;;
45540;SDS011;31265;49.680;8.608;2023-06-10T05:10:05;6.28;;;3.63;;
45540;SDS011;31265;49.680;8.608;2023-06-10T05:12:35;6.93;;;3.30;;
45540;SDS011;31265;49.680;8.608;2023-06-10T05:15:06;5.50;;;3.05;;
45540;SDS011;31265;49.680;8.608;2023-06-10T05:17:35;9.15;;;3.17;;
45540;SDS011;31265;49.680;8.608;2023-06-10T05:20:04;5.50;;;3.38;;
45540;SDS011;31265;49.680;8.608;2023-06-10T05:22:35;4.88;;;3.00;;
45540;SDS011;31265;49.680;8.608;2023-06-10T05:25:04;6.88;;;3.38;;
45540;SDS011;31265;49.680;8.608;2023-06-10T05:30:01;5.03;;;2.78;;
45540;SDS011;31265;49.680;8.608;2023-06-10T05:32:32;9.77;;;3.83;;
45540;SDS011;31265;49.680;8.608;2023-06-10T05:35:01;6.30;;;3.83;;
45540;SDS011;31265;49.680;8.608;2023-06-10T05:37:32;5.07;;;3.42;;
45540;SDS011;31265;49.680;8.608;2023-06-10T05:40:02;8.48;;;3.55;;
45540;SDS011;31265;49.680;8.608;2023-06-10T05:42:31;5.88;;;3.55;;
45540;SDS011;31265;49.680;8.608;2023-06-10T05:44:59;5.47;;;3.17;;
45540;SDS011;31265;49.680;8.608;2023-06-10T05:47:28;6.03;;;3.17;;
45540;SDS011;31265;49.680;8.608;2023-06-10T05:49:57;5.07;;;3.00;;
45540;SDS011;31265;49.680;8.608;2023-06-10T05:52:25;4.53;;;2.55;;
45540;SDS011;31265;49.680;8.608;2023-06-10T05:54:56;4.72;;;3.20;;
45540;SDS011;31265;49.680;8.608;2023-06-10T05:57:26;5.25;;;3.03;;
45540;SDS011;31265;49.680;8.608;2023-06-10T05:59:54;3.70;;;2.45;;
45540;SDS011;31265;49.680;8.608;2023-06-10T06:02:23;4.18;;;2.88;;
45540;SDS011;31265;49.680;8.608;2023-06-10T06:04:52;5.40;;;3.15;;
45540;SDS011;31265;49.680;8.608;2023-06-10T06:07:20;6.30;;;2.83;;
45540;SDS011;31265;49.680;8.608;2023-06-10T06:09:48;7.53;;;3.35;;
45540;SDS011;31265;49.680;8.608;2023-06-10T06:12:18;5.00;;;2.85;;
45540;SDS011;31265;49.680;8.608;2023-06-10T06:14:48;5.85;;;3.67;;
45540;SDS011;31265;49.680;8.608;2023-06-10T06:17:17;9.77;;;3.60;;
45540;SDS011;31265;49.680;8.608;2023-06-10T06:19:45;6.32;;;3.22;;
45540;SDS011;31265;49.680;8.608;2023-06-10T06:22:14;4.50;;;2.78;;
45540;SDS011;31265;49.680;8.608;2023-06-10T06:24:47;5.72;;;3.15;;
45540;SDS011;31265;49.680;8.608;2023-06-10T06:27:16;5.90;;;3.17;;
45540;SDS011;31265;49.680;8.608;2023-06-10T06:29:47;5.07;;;3.15;;
45540;SDS011;31265;49.680;8.608;2023-06-10T06:32:16;6.63;;;2.92;;
45540;SDS011;31265;49.680;8.608;2023-06-10T06:34:44;5.35;;;3.45;;
45540;SDS011;31265;49.680;8.608;2023-06-10T06:37:13;6.10;;;3.92;;
45540;SDS011;31265;49.680;8.608;2023-06-10T06:39:44;6.63;;;2.80;;
45540;SDS011;31265;49.680;8.608;2023-06-10T06:42:12;6.03;;;3.67;;
45540;SDS011;31265;49.680;8.608;2023-06-10T06:45:03;4.28;;;2.60;;
45540;SDS011;31265;49.680;8.608;2023-06-10T06:47:32;4.72;;;3.03;;
45540;SDS011;31265;49.680;8.608;2023-06-10T06:50:00;4.70;;;2.95;;
45540;SDS011;31265;49.680;8.608;2023-06-10T06:52:29;8.65;;;2.90;;
45540;SDS011;31265;49.680;8.608;2023-06-10T06:54:57;5.97;;;3.22;;
45540;SDS011;31265;49.680;8.608;2023-06-10T06:57:25;5.45;;;3.00;;
45540;SDS011;31265;49.680;8.608;2023-06-10T06:59:54;5.95;;;3.13;;
45540;SDS011;31265;49.680;8.608;2023-06-10T07:02:25;3.90;;;2.50;;
45540;SDS011;31265;49.680;8.608;2023-06-10T07:04:53;5.10;;;2.50;;
45540;SDS011;31265;49.680;8.608;2023-06-10T07:09:50;6.45;;;2.55;;
45540;SDS011;31265;49.680;8.608;2023-06-10T07:12:21;6.05;;;2.47;;
45540;SDS011;31265;49.680;8.608;2023-06-10T07:14:51;4.47;;;2.97;;
45540;SDS011;31265;49.680;8.608;2023-06-10T07:17:19;3.70;;;2.57;;
45540;SDS011;31265;49.680;8.608;2023-06-10T07:19:49;3.72;;;2.60;;
45540;SDS011;31265;49.680;8.608;2023-06-10T07:22:18;6.38;;;2.80;;
45540;SDS011;31265;49.680;8.608;2023-06-10T07:24:46;4.43;;;2.60;;
45540;SDS011;31265;49.680;8.608;2023-06-10T07:27:14;3.90;;;2.10;;
45540;SDS011;31265;49.680;8.608;2023-06-10T07:29:43;4.78;;;2.85;;
45540;SDS011;31265;49.680;8.608;2023-06-10T07:32:11;4.05;;;2.10;;
45540;SDS011;31265;49.680;8.608;2023-06-10T07:34:39;4.50;;;2.47;;
45540;SDS011;31265;49.680;8.608;2023-06-10T07:37:09;3.83;;;2.05;;
45540;SDS011;31265;49.680;8.608;2023-06-10T07:39:37;4.68;;;2.20;;
45540;SDS011;31265;49.680;8.608;2023-06-10T07:42:06;4.43;;;2.50;;
45540;SDS011;31265;49.680;8.608;2023-06-10T07:44:40;4.63;;;1.77;;
45540;SDS011;31265;49.680;8.608;2023-06-10T07:47:08;4.57;;;2.30;;
45540;SDS011;31265;49.680;8.608;2023-06-10T07:49:37;7.80;;;2.10;;
45540;SDS011;31265;49.680;8.608;2023-06-10T07:52:06;3.20;;;1.95;;
45540;SDS011;31265;49.680;8.608;2023-06-10T07:54:37;5.43;;;2.72;;
45540;SDS011;31265;49.680;8.608;2023-06-10T07:57:05;4.80;;;2.40;;
45540;SDS011;31265;49.680;8.608;2023-06-10T08:02:03;4.57;;;2.50;;
45540;SDS011;31265;49.680;8.608;2023-06-10T08:04:31;3.90;;;2.17;;
45540;SDS011;31265;49.680;8.608;2023-06-10T08:07:02;3.28;;;2.00;;
45540;SDS011;31265;49.680;8.608;2023-06-10T08:09:31;6.20;;;1.92;;
45540;SDS011;31265;49.680;8.608;2023-06-10T08:12:03;4.18;;;2.08;;
45540;SDS011;31265;49.680;8.608;2023-06-10T08:14:34;3.70;;;2.20;;
45540;SDS011;31265;49.680;8.608;2023-06-10T08:17:04;4.35;;;2.13;;
45540;SDS011;31265;49.680;8.608;2023-06-10T08:19:35;3.42;;;1.90;;
45540;SDS011;31265;49.680;8.608;2023-06-10T08:22:03;3.95;;;2.10;;
45540;SDS011;31265;49.680;8.608;2023-06-10T08:24:32;3.92;;;2.13;;
45540;SDS011;31265;49.680;8.608;2023-06-10T08:27:01;6.60;;;2.40;;
45540;SDS011;31265;49.680;8.608;2023-06-10T08:29:31;3.92;;;2.00;;
45540;SDS011;31265;49.680;8.608;2023-06-10T08:32:00;3.67;;;2.25;;
45540;SDS011;31265;49.680;8.608;2023-06-10T08:34:28;4.50;;;2.10;;
45540;SDS011;31265;49.680;8.608;2023-06-10T08:36:57;3.28;;;2.05;;
45540;SDS011;31265;49.680;8.608;2023-06-10T08:39:25;3.78;;;1.88;;
45540;SDS011;31265;49.680;8.608;2023-06-10T08:41:57;3.33;;;2.10;;
45540;SDS011;31265;49.680;8.608;2023-06-10T08:44:35;6.43;;;2.20;;
45540;SDS011;31265;49.680;8.608;2023-06-10T08:47:06;4.88;;;2.40;;
45540;SDS011;31265;49.680;8.608;2023-06-10T08:49:41;3.67;;;2.30;;
45540;SDS011;31265;49.680;8.608;2023-06-10T08:52:13;3.97;;;2.25;;
45540;SDS011;31265;49.680;8.608;2023-06-10T08:54:46;4.55;;;2.58;;
45540;SDS011;31265;49.680;8.608;2023-06-10T08:57:20;3.38;;;1.92;;
45540;SDS011;31265;49.680;8.608;2023-06-10T09:02:20;5.55;;;2.50;;
45540;SDS011;31265;49.680;8.608;2023-06-10T09:04:50;3.70;;;1.90;;
45540;SDS011;31265;49.680;8.608;2023-06-10T09:07:19;4.70;;;2.10;;
45540;SDS011;31265;49.680;8.608;2023-06-10T09:09:51;4.70;;;2.38;;
45540;SDS011;31265;49.680;8.608;2023-06-10T09:12:21;3.55;;;2.17;;
45540;SDS011;31265;49.680;8.608;2023-06-10T09:14:51;4.65;;;2.30;;
45540;SDS011;31265;49.680;8.608;2023-06-10T09:17:19;3.10;;;2.00;;
45540;SDS011;31265;49.680;8.608;2023-06-10T09:19:47;4.50;;;2.13;;
45540;SDS011;31265;49.680;8.608;2023-06-10T09:22:19;3.97;;;2.42;;
45540;SDS011;31265;49.680;8.608;2023-06-10T09:24:50;6.00;;;2.22;;
45540;SDS011;31265;49.680;8.608;2023-06-10T09:27:18;3.80;;;1.80;;
45540;SDS011;31265;49.680;8.608;2023-06-10T09:29:47;4.03;;;2.55;;
45540;SDS011;31265;49.680;8.608;2023-06-10T09:32:20;3.90;;;2.30;;
45540;SDS011;31265;49.680;8.608;2023-06-10T09:34:49;4.15;;;2.40;;
45540;SDS011;31265;49.680;8.608;2023-06-10T09:37:21;7.65;;;2.38;;
45540;SDS011;31265;49.680;8.608;2023-06-10T09:40:00;3.58;;;2.28;;
45540;SDS011;31265;49.680;8.608;2023-06-10T09:42:31;3.97;;;2.25;;
45540;SDS011;31265;49.680;8.608;2023-06-10T09:45:01;5.13;;;2.25;;
45540;SDS011;31265;49.680;8.608;2023-06-10T09:47:31;5.90;;;2.25;;
45540;SDS011;31265;49.680;8.608;2023-06-10T09:50:00;5.78;;;2.60;;
45540;SDS011;31265;49.680;8.608;2023-06-10T09:52:29;3.20;;;2.33;;
45540;SDS011;31265;49.680;8.608;2023-06-10T09:55:01;4.97;;;2.17;;
45540;SDS011;31265;49.680;8.608;2023-06-10T09:57:30;3.83;;;1.95;;
45540;SDS011;31265;49.680;8.608;2023-06-10T10:00:03;4.57;;;2.00;;
45540;SDS011;31265;49.680;8.608;2023-06-10T10:02:49;3.22;;;1.50;;
45540;SDS011;31265;49.680;8.608;2023-06-10T10:05:19;3.20;;;1.60;;
45540;SDS011;31265;49.680;8.608;2023-06-10T10:07:51;4.15;;;2.30;;
45540;SDS011;31265;49.680;8.608;2023-06-10T10:10:20;2.72;;;1.58;;
45540;SDS011;31265;49.680;8.608;2023-06-10T10:12:50;2.80;;;1.40;;
45540;SDS011;31265;49.680;8.608;2023-06-10T10:15:29;5.88;;;2.03;;
45540;SDS011;31265;49.680;8.608;2023-06-10T10:18:06;3.38;;;1.85;;
45540;SDS011;31265;49.680;8.608;2023-06-10T10:20:47;4.43;;;1.80;;
45540;SDS011;31265;49.680;8.608;2023-06-10T10:23:26;2.95;;;1.70;;
45540;SDS011;31265;49.680;8.608;2023-06-10T10:25:57;2.95;;;1.65;;
45540;SDS011;31265;49.680;8.608;2023-06-10T10:28:33;3.00;;;1.67;;
45540;SDS011;31265;49.680;8.608;2023-06-10T10:31:09;2.92;;;1.95;;
45540;SDS011;31265;49.680;8.608;2023-06-10T10:33:48;2.78;;;1.65;;
45540;SDS011;31265;49.680;8.608;2023-06-10T10:36:23;3.50;;;1.95;;
45540;SDS011;31265;49.680;8.608;2023-06-10T10:38:57;3.60;;;1.83;;
45540;SDS011;31265;49.680;8.608;2023-06-10T10:41:31;3.17;;;1.65;;
45540;SDS011;31265;49.680;8.608;2023-06-10T10:44:05;3.22;;;1.60;;
45540;SDS011;31265;49.680;8.608;2023-06-10T10:46:43;4.05;;;2.00;;
45540;SDS011;31265;49.680;8.608;2023-06-10T10:49:23;7.20;;;1.70;;
45540;SDS011;31265;49.680;8.608;2023-06-10T10:51:58;3.72;;;2.22;;
45540;SDS011;31265;49.680;8.608;2023-06-10T10:54:31;3.00;;;2.00;;
45540;SDS011;31265;49.680;8.608;2023-06-10T10:57:11;2.97;;;1.95;;
45540;SDS011;31265;49.680;8.608;2023-06-10T10:59:44;3.83;;;1.50;;
45540;SDS011;31265;49.680;8.608;2023-06-10T11:02:34;3.55;;;1.85;;
45540;SDS011;31265;49.680;8.608;2023-06-10T11:05:07;2.95;;;1.83;;
45540;SDS011;31265;49.680;8.608;2023-06-10T11:07:51;2.80;;;1.60;;
45540;SDS011;31265;49.680;8.608;2023-06-10T11:10:30;2.55;;;1.40;;
45540;SDS011;31265;49.680;8.608;2023-06-10T11:13:05;2.80;;;1.58;;
45540;SDS011;31265;49.680;8.608;2023-06-10T11:15:42;2.80;;;1.70;;
45540;SDS011;31265;49.680;8.608;2023-06-10T11:18:20;3.95;;;2.13;;
45540;SDS011;31265;49.680;8.608;2023-06-10T11:21:09;3.00;;;1.85;;
45540;SDS011;31265;49.680;8.608;2023-06-10T11:23:40;2.95;;;1.73;;
45540;SDS011;31265;49.680;8.608;2023-06-10T11:26:15;3.15;;;1.75;;
45540;SDS011;31265;49.680;8.608;2023-06-10T11:29:03;3.58;;;1.75;;
45540;SDS011;31265;49.680;8.608;2023-06-10T11:31:44;2.55;;;1.25;;
45540;SDS011;31265;49.680;8.608;2023-06-10T11:34:20;4.20;;;1.63;;
45540;SDS011;31265;49.680;8.608;2023-06-10T11:37:00;3.85;;;1.90;;
45540;SDS011;31265;49.680;8.608;2023-06-10T11:39:31;4.22;;;1.45;;
45540;SDS011;31265;49.680;8.608;2023-06-10T11:44:34;2.40;;;1.38;;
45540;SDS011;31265;49.680;8.608;2023-06-10T11:47:04;3.00;;;1.55;;
45540;SDS011;31265;49.680;8.608;2023-06-10T11:49:33;1.98;;;1.35;;
45540;SDS011;31265;49.680;8.608;2023-06-10T11:52:06;2.10;;;1.23;;
45540;SDS011;31265;49.680;8.608;2023-06-10T11:54:34;2.92;;;1.20;;
45540;SDS011;31265;49.680;8.608;2023-06-10T11:57:03;2.80;;;1.50;;
45540;SDS011;31265;49.680;8.608;2023-06-10T11:59:32;2.67;;;1.58;;
45540;SDS011;31265;49.680;8.608;2023-06-10T12:02:01;4.70;;;2.05;;
45540;SDS011;31265;49.680;8.608;2023-06-10T12:04:29;4.80;;;1.52;;
45540;SDS011;31265;49.680;8.608;2023-06-10T12:06:59;2.58;;;1.50;;
45540;SDS011;31265;49.680;8.608;2023-06-10T12:09:29;2.38;;;1.42;;
45540;SDS011;31265;49.680;8.608;2023-06-10T12:12:00;2.53;;;1.70;;
45540;SDS011;31265;49.680;8.608;2023-06-10T12:17:35;3.92;;;1.67;;
45540;SDS011;31265;49.680;8.608;2023-06-10T12:20:06;3.00;;;1.50;;
45540;SDS011;31265;49.680;8.608;2023-06-10T12:22:37;3.03;;;1.80;;
45540;SDS011;31265;49.680;8.608;2023-06-10T12:25:08;2.90;;;1.30;;
45540;SDS011;31265;49.680;8.608;2023-06-10T12:27:39;2.50;;;1.25;;
45540;SDS011;31265;49.680;8.608;2023-06-10T12:30:19;2.28;;;1.00;;
45540;SDS011;31265;49.680;8.608;2023-06-10T12:32:48;4.25;;;1.45;;
45540;SDS011;31265;49.680;8.608;2023-06-10T12:35:17;2.08;;;1.20;;
45540;SDS011;31265;49.680;8.608;2023-06-10T12:37:54;1.45;;;1.02;;
45540;SDS011;31265;49.680;8.608;2023-06-10T12:40:28;2.67;;;1.48;;
45540;SDS011;31265;49.680;8.608;2023-06-10T12:42:58;6.97;;;1.73;;
45540;SDS011;31265;49.680;8.608;2023-06-10T12:45:28;2.78;;;1.33;;
45540;SDS011;31265;49.680;8.608;2023-06-10T12:48:06;2.42;;;1.33;;
45540;SDS011;31265;49.680;8.608;2023-06-10T12:50:37;2.50;;;1.50;;
45540;SDS011;31265;49.680;8.608;2023-06-10T12:53:06;1.98;;;1.13;;
45540;SDS011;31265;49.680;8.608;2023-06-10T12:55:37;2.92;;;1.30;;
45540;SDS011;31265;49.680;8.608;2023-06-10T12:58:05;2.47;;;1.40;;
45540;SDS011;31265;49.680;8.608;2023-06-10T13:00:34;2.92;;;1.45;;
45540;SDS011;31265;49.680;8.608;2023-06-10T13:03:03;3.55;;;1.40;;
45540;SDS011;31265;49.680;8.608;2023-06-10T13:05:34;4.78;;;1.73;;
45540;SDS011;31265;49.680;8.608;2023-06-10T13:08:04;2.83;;;1.60;;
45540;SDS011;31265;49.680;8.608;2023-06-10T13:10:37;2.33;;;1.20;;
45540;SDS011;31265;49.680;8.608;2023-06-10T13:13:06;2.95;;;1.40;;
45540;SDS011;31265;49.680;8.608;2023-06-10T13:15:36;3.05;;;1.05;;
45540;SDS011;31265;49.680;8.608;2023-06-10T13:18:10;3.75;;;1.23;;
45540;SDS011;31265;49.680;8.608;2023-06-10T13:23:07;3.05;;;1.38;;
45540;SDS011;31265;49.680;8.608;2023-06-10T13:25:37;4.18;;;1.58;;
45540;SDS011;31265;49.680;8.608;2023-06-10T13:28:09;3.08;;;1.30;;
45540;SDS011;31265;49.680;8.608;2023-06-10T13:30:38;2.42;;;1.27;;
45540;SDS011;31265;49.680;8.608;2023-06-10T13:33:06;2.20;;;1.20;;
45540;SDS011;31265;49.680;8.608;2023-06-10T13:35:36;2.83;;;1.50;;
45540;SDS011;31265;49.680;8.608;2023-06-10T13:40:34;2.85;;;1.40;;
45540;SDS011;31265;49.680;8.608;2023-06-10T13:43:04;2.75;;;1.25;;
45540;SDS011;31265;49.680;8.608;2023-06-10T13:45:32;3.17;;;1.38;;
45540;SDS011;31265;49.680;8.608;2023-06-10T13:48:00;2.95;;;1.20;;
45540;SDS011;31265;49.680;8.608;2023-06-10T13:50:31;2.40;;;1.27;;
45540;SDS011;31265;49.680;8.608;2023-06-10T13:53:01;3.03;;;1.20;;
45540;SDS011;31265;49.680;8.608;2023-06-10T13:55:31;2.40;;;1.30;;
45540;SDS011;31265;49.680;8.608;2023-06-10T13:58:00;3.47;;;1.40;;
45540;SDS011;31265;49.680;8.608;2023-06-10T14:00:29;2.60;;;0.98;;
45540;SDS011;31265;49.680;8.608;2023-06-10T14:02:58;2.10;;;1.17;;
45540;SDS011;31265;49.680;8.608;2023-06-10T14:05:27;2.50;;;1.27;;
45540;SDS011;31265;49.680;8.608;2023-06-10T14:07:58;3.10;;;1.38;;
45540;SDS011;31265;49.680;8.608;2023-06-10T14:10:27;2.70;;;1.38;;
45540;SDS011;31265;49.680;8.608;2023-06-10T14:12:58;4.30;;;1.33;;
45540;SDS011;31265;49.680;8.608;2023-06-10T14:15:33;2.90;;;1.38;;
45540;SDS011;31265;49.680;8.608;2023-06-10T14:18:01;3.08;;;1.40;;
45540;SDS011;31265;49.680;8.608;2023-06-10T14:20:30;1.75;;;1.13;;
45540;SDS011;31265;49.680;8.608;2023-06-10T14:22:59;2.53;;;1.10;;
45540;SDS011;31265;49.680;8.608;2023-06-10T14:25:27;6.15;;;1.48;;
45540;SDS011;31265;49.680;8.608;2023-06-10T14:27:56;4.85;;;1.73;;
45540;SDS011;31265;49.680;8.608;2023-06-10T14:30:24;2.83;;;1.40;;
45540;SDS011;31265;49.680;8.608;2023-06-10T14:32:53;4.33;;;1.70;;
45540;SDS011;31265;49.680;8.608;2023-06-10T14:35:22;3.15;;;1.75;;
45540;SDS011;31265;49.680;8.608;2023-06-10T14:37:50;2.57;;;1.40;;
45540;SDS011;31265;49.680;8.608;2023-06-10T14:40:20;2.10;;;1.30;;
45540;SDS011;31265;49.680;8.608;2023-06-10T14:42:51;2.65;;;1.50;;
45540;SDS011;31265;49.680;8.608;2023-06-10T14:45:20;2.67;;;1.60;;
45540;SDS011;31265;49.680;8.608;2023-06-10T14:47:49;3.75;;;1.80;;
45540;SDS011;31265;49.680;8.608;2023-06-10T14:50:24;2.60;;;1.17;;
45540;SDS011;31265;49.680;8.608;2023-06-10T14:52:52;3.30;;;1.83;;
45540;SDS011;31265;49.680;8.608;2023-06-10T14:55:21;2.30;;;1.20;;
45540;SDS011;31265;49.680;8.608;2023-06-10T14:57:50;5.45;;;2.00;;
45540;SDS011;31265;49.680;8.608;2023-06-10T15:00:19;2.83;;;1.42;;
45540;SDS011;31265;49.680;8.608;2023-06-10T15:02:49;2.97;;;1.40;;
45540;SDS011;31265;49.680;8.608;2023-06-10T15:07:49;2.28;;;1.23;;
45540;SDS011;31265;49.680;8.608;2023-06-10T15:10:18;3.00;;;1.50;;
45540;SDS011;31265;49.680;8.608;2023-06-10T15:12:49;3.50;;;1.80;;
45540;SDS011;31265;49.680;8.608;2023-06-10T15:15:22;2.47;;;1.33;;
45540;SDS011;31265;49.680;8.608;2023-06-10T15:17:51;6.03;;;1.90;;
45540;SDS011;31265;49.680;8.608;2023-06-10T15:22:50;3.00;;;1.63;;
45540;SDS011;31265;49.680;8.608;2023-06-10T15:25:20;3.75;;;1.77;;
45540;SDS011;31265;49.680;8.608;2023-06-10T15:27:52;3.78;;;2.28;;
45540;SDS011;31265;49.680;8.608;2023-06-10T15:30:22;2.80;;;1.60;;
45540;SDS011;31265;49.680;8.608;2023-06-10T15:32:50;2.83;;;1.70;;
45540;SDS011;31265;49.680;8.608;2023-06-10T15:35:19;2.17;;;1.40;;
45540;SDS011;31265;49.680;8.608;2023-06-10T15:37:48;2.28;;;1.30;;
45540;SDS011;31265;49.680;8.608;2023-06-10T15:40:18;3.30;;;1.70;;
45540;SDS011;31265;49.680;8.608;2023-06-10T15:42:47;2.58;;;1.58;;
45540;SDS011;31265;49.680;8.608;2023-06-10T15:45:16;3.25;;;1.65;;
45540;SDS011;31265;49.680;8.608;2023-06-10T15:47:44;4.00;;;2.20;;
45540;SDS011;31265;49.680;8.608;2023-06-10T15:50:14;5.20;;;2.80;;
45540;SDS011;31265;49.680;8.608;2023-06-10T15:52:42;8.20;;;2.50;;